createdAt,value
2022-09-20T00:02:48.350Z,101244.75
2022-09-20T00:05:51.194Z,101249.75
2022-09-20T00:08:54.764Z,101255.09
2022-09-20T00:11:59.564Z,101253.72
2022-09-20T00:15:04.769Z,101251.75
2022-09-20T00:18:07.476Z,101254.84
2022-09-20T00:21:16.912Z,101251.16
2022-09-20T00:24:20.322Z,101259.16
2022-09-20T00:27:24.384Z,101251.75
2022-09-20T00:30:27.250Z,101253.81
2022-09-20T00:33:50.250Z,101260.34
2022-09-20T00:36:52.112Z,101260.66
2022-09-20T00:39:54.972Z,101256.69
2022-09-20T00:42:59.044Z,101257.94
2022-09-20T00:46:03.960Z,101256.59
2022-09-20T00:49:13.001Z,101273.97
2022-09-20T00:52:17.109Z,101260.31
2022-09-20T00:55:21.423Z,101261.41
2022-09-20T00:58:28.613Z,101265.22
2022-09-20T01:01:31.986Z,101264.91
2022-09-20T01:04:39.088Z,101267.69
2022-09-20T01:07:43.762Z,101263.81
2022-09-20T01:10:47.291Z,101270.09
2022-09-20T01:13:54.454Z,101265.72
2022-09-20T01:17:03.668Z,101262.84
2022-09-20T01:20:16.788Z,101260.66
2022-09-20T01:23:45.353Z,101270.34
2022-09-20T01:27:07.857Z,101262.59
2022-09-20T01:30:17.300Z,101264.81
2022-09-20T01:33:29.607Z,101261.44
2022-09-20T01:36:38.989Z,101258.09
2022-09-20T01:39:53.761Z,101265.06
2022-09-20T01:43:04.268Z,101263.31
2022-09-20T01:46:21.432Z,101267.69
2022-09-20T01:49:31.752Z,101280.69
2022-09-20T01:53:08.942Z,101276.38
2022-09-20T01:56:42.255Z,101280.53
2022-09-20T02:00:08.141Z,101272.72
2022-09-20T02:03:37.205Z,101284.19
2022-09-20T02:07:08.805Z,101280.75
2022-09-20T02:10:33.013Z,101283.81
2022-09-20T02:13:54.990Z,101281.91
2022-09-20T02:17:04.501Z,101287.72
2022-09-20T02:20:21.153Z,101288.47
2022-09-20T02:23:41.964Z,101289.56
2022-09-20T02:26:58.525Z,101287.19
2022-09-20T02:30:25.135Z,101283.06
2022-09-20T02:33:52.639Z,101288.81
2022-09-20T02:37:16.607Z,101285.31
2022-09-20T02:40:31.417Z,101291.56
2022-09-20T02:43:41.955Z,101288.06
2022-09-20T02:46:54.047Z,101295.16
2022-09-20T02:50:12.715Z,101290.34
2022-09-20T02:53:38.178Z,101299.03
2022-09-20T02:56:48.835Z,101299.09
2022-09-20T02:59:57.950Z,101307.41
2022-09-20T03:03:10.068Z,101304.53
2022-09-20T03:06:22.532Z,101308.28
2022-09-20T03:09:36.042Z,101301.97
2022-09-20T03:12:56.351Z,101304.94
2022-09-20T03:16:06.533Z,101312.69
2022-09-20T03:19:23.325Z,101317.00
2022-09-20T03:22:37.157Z,101319.47
2022-09-20T03:25:56.044Z,101309.44
2022-09-20T03:29:04.011Z,101318.06
2022-09-20T03:32:23.723Z,101324.19
2022-09-20T03:35:42.439Z,101323.44
2022-09-20T03:39:12.159Z,101324.16
2022-09-20T03:42:20.844Z,101328.84
2022-09-20T03:45:59.550Z,101321.34
2022-09-20T03:49:47.637Z,101322.03
2022-09-20T03:53:08.069Z,101327.44
2022-09-20T03:56:27.033Z,101326.91
2022-09-20T03:59:54.177Z,101324.94
2022-09-20T04:03:04.807Z,101326.56
2022-09-20T04:06:49.047Z,101330.94
2022-09-20T04:10:17.366Z,101327.53
2022-09-20T04:13:35.677Z,101331.88
2022-09-20T04:16:47.349Z,101328.72
2022-09-20T04:19:54.901Z,101337.78
2022-09-20T04:23:02.533Z,101341.94
2022-09-20T04:26:05.675Z,101347.06
2022-09-20T04:29:29.051Z,101342.06
2022-09-20T04:32:41.258Z,101343.94
2022-09-20T04:36:06.765Z,101347.41
2022-09-20T04:39:18.971Z,101350.28
2022-09-20T04:42:51.978Z,101348.56
2022-09-20T04:46:22.825Z,101354.50
2022-09-20T04:49:57.914Z,101355.22
2022-09-20T04:53:30.951Z,101353.91
2022-09-20T04:56:52.205Z,101348.31
2022-09-20T05:00:05.794Z,101359.75
2022-09-20T05:03:33.104Z,101357.34
2022-09-20T05:07:01.723Z,101359.75
2022-09-20T05:10:27.154Z,101366.28
2022-09-20T05:13:43.283Z,101371.97
2022-09-20T05:17:02.789Z,101373.88
2022-09-20T05:20:27.798Z,101377.47
2022-09-20T05:23:58.283Z,101375.56
2022-09-20T05:27:19.744Z,101382.84
2022-09-20T05:30:35.190Z,101390.03
2022-09-20T05:33:49.092Z,101397.56
2022-09-20T05:37:00.717Z,101396.72
2022-09-20T05:40:16.585Z,101405.41
2022-09-20T05:43:28.867Z,101400.78
2022-09-20T05:46:37.762Z,101402.56
2022-09-20T05:49:53.070Z,101407.59
2022-09-20T05:53:00.515Z,101409.34
2022-09-20T05:56:15.773Z,101419.00
2022-09-20T05:59:31.964Z,101407.59
2022-09-20T06:02:49.206Z,101415.34
2022-09-20T06:05:59.468Z,101425.81
2022-09-20T06:09:19.853Z,101425.34
2022-09-20T06:13:19.925Z,101426.56
2022-09-20T06:16:33.731Z,101425.97
2022-09-20T06:19:42.452Z,101430.00
2022-09-20T06:22:47.599Z,101435.38
2022-09-20T06:25:57.442Z,101448.50
2022-09-20T06:29:04.400Z,101439.91
2022-09-20T06:32:08.299Z,101446.34
2022-09-20T06:35:11.291Z,101446.31
2022-09-20T06:38:51.252Z,101449.09
2022-09-20T06:41:54.727Z,101453.78
2022-09-20T06:44:59.103Z,101452.44
2022-09-20T06:48:03.411Z,101456.38
2022-09-20T06:51:06.301Z,101454.91
2022-09-20T06:54:15.435Z,101459.69
2022-09-20T06:57:21.250Z,101467.84
2022-09-20T07:00:24.353Z,101465.44
2022-09-20T07:03:28.437Z,101468.91
2022-09-20T07:06:31.055Z,101473.69
2022-09-20T07:09:33.680Z,101475.16
2022-09-20T07:12:36.569Z,101469.78
2022-09-20T07:15:39.338Z,101471.00
2022-09-20T07:18:44.635Z,101477.66
2022-09-20T07:21:47.352Z,101483.72
2022-09-20T07:24:50.087Z,101482.50
2022-09-20T07:27:52.732Z,101479.47
2022-09-20T07:30:55.327Z,101484.59
2022-09-20T07:33:59.352Z,101480.84
2022-09-20T07:37:02.389Z,101487.09
2022-09-20T07:40:06.497Z,101493.13
2022-09-20T07:43:09.235Z,101498.34
2022-09-20T07:46:13.664Z,101502.06
2022-09-20T07:49:17.871Z,101497.94
2022-09-20T07:52:20.518Z,101503.28
2022-09-20T07:55:23.234Z,101512.84
2022-09-20T07:58:26.361Z,101514.31
2022-09-20T08:01:29.496Z,101512.41
2022-09-20T08:04:33.576Z,101513.50
2022-09-20T08:07:36.204Z,101521.56
2022-09-20T08:10:41.408Z,101522.38
2022-09-20T08:17:12.414Z,101522.94
2022-09-20T08:20:16.938Z,101523.50
2022-09-20T08:23:23.685Z,101529.22
2022-09-20T08:26:30.418Z,101528.94
2022-09-20T08:29:33.166Z,101528.91
2022-09-20T08:32:35.719Z,101524.44
2022-09-20T08:35:39.681Z,101530.28
2022-09-20T08:42:14.413Z,101529.19
2022-09-20T08:45:33.703Z,101533.31
2022-09-20T08:48:37.367Z,101535.41
2022-09-20T08:51:48.508Z,101536.56
2022-09-20T08:54:51.386Z,101540.69
2022-09-20T08:57:56.639Z,101544.63
2022-09-20T09:01:00.172Z,101543.19
2022-09-20T09:04:13.817Z,101544.84
2022-09-20T09:07:21.711Z,101545.84
2022-09-20T09:10:24.333Z,101544.56
2022-09-20T09:13:33.398Z,101549.00
2022-09-20T09:16:36.428Z,101547.59
2022-09-20T09:19:48.249Z,101543.31
2022-09-20T09:23:02.723Z,101548.56
2022-09-20T09:26:06.708Z,101552.97
2022-09-20T09:29:15.911Z,101553.88
2022-09-20T09:32:24.055Z,101558.38
2022-09-20T09:35:30.630Z,101557.22
2022-09-20T09:38:37.612Z,101546.75
2022-09-20T09:41:40.646Z,101548.66
2022-09-20T09:44:43.357Z,101550.56
2022-09-20T09:47:46.191Z,101548.53
2022-09-20T09:50:48.871Z,101555.78
2022-09-20T09:53:55.199Z,101542.38
2022-09-20T09:57:12.069Z,101538.75
2022-09-20T10:00:21.962Z,101542.88
2022-09-20T10:03:39.446Z,101543.53
2022-09-20T10:06:52.189Z,101546.72
2022-09-20T10:10:09.065Z,101542.22
2022-09-20T10:13:20.931Z,101535.19
2022-09-20T10:16:35.910Z,101544.88
2022-09-20T10:19:49.757Z,101544.09
2022-09-20T10:23:34.443Z,101559.75
2022-09-20T10:26:39.991Z,101550.81
2022-09-20T10:29:54.727Z,101542.69
2022-09-20T10:33:07.351Z,101542.38
2022-09-20T10:36:25.295Z,101550.38
2022-09-20T10:39:32.802Z,101553.34
2022-09-20T10:43:04.288Z,101559.09
2022-09-20T10:46:31.795Z,101558.13
2022-09-20T10:49:37.639Z,101560.38
2022-09-20T10:53:06.541Z,101558.38
2022-09-20T10:56:24.017Z,101554.44
2022-09-20T10:59:38.708Z,101565.34
2022-09-20T11:02:53.855Z,101571.63
2022-09-20T11:06:09.288Z,101581.66
2022-09-20T11:09:18.759Z,101605.75
2022-09-20T11:12:26.924Z,101580.91
2022-09-20T11:15:36.392Z,101572.28
2022-09-20T11:18:44.975Z,101592.13
2022-09-20T11:21:54.387Z,101591.88
2022-09-20T11:25:04.016Z,101598.44
2022-09-20T11:28:13.785Z,101600.69
2022-09-20T11:31:24.855Z,101601.25
2022-09-20T11:34:31.127Z,101597.38
2022-09-20T11:37:37.391Z,101587.78
2022-09-20T11:40:46.402Z,101595.03
2022-09-20T11:43:50.679Z,101594.38
2022-09-20T11:47:01.237Z,101597.69
2022-09-20T11:50:32.987Z,101591.25
2022-09-20T11:53:48.697Z,101593.06
2022-09-20T11:56:53.005Z,101596.13
2022-09-20T12:00:01.163Z,101600.63
2022-09-20T12:03:09.756Z,101595.72
2022-09-20T12:06:27.478Z,101593.41
2022-09-20T12:09:32.841Z,101600.09
2022-09-20T12:12:41.651Z,101603.19
2022-09-20T12:15:44.394Z,101601.47
2022-09-20T12:19:05.404Z,101621.03
2022-09-20T12:22:29.367Z,101618.81
2022-09-20T12:25:40.614Z,101611.66
2022-09-20T12:28:45.321Z,101604.16
2022-09-20T12:31:49.137Z,101605.94
2022-09-20T12:34:53.539Z,101610.94
2022-09-20T12:37:56.585Z,101630.81
2022-09-20T12:41:01.574Z,101647.75
2022-09-20T12:44:24.196Z,101646.94
2022-09-20T12:47:30.132Z,101663.34
2022-09-20T12:50:51.664Z,101648.13
2022-09-20T12:54:07.564Z,101656.19
2022-09-20T12:57:19.135Z,101653.53
2022-09-20T13:00:34.477Z,101650.47
2022-09-20T13:03:39.459Z,101650.63
2022-09-20T13:06:45.128Z,101653.94
2022-09-20T13:09:49.281Z,101659.22
2022-09-20T13:12:57.085Z,101643.28
2022-09-20T13:16:01.290Z,101644.59
2022-09-20T13:19:08.413Z,101658.53
2022-09-20T13:22:17.336Z,101659.09
2022-09-20T13:25:22.029Z,101664.41
2022-09-20T13:28:35.130Z,101673.84
2022-09-20T13:31:38.184Z,101681.44
2022-09-20T13:34:41.042Z,101675.00
2022-09-20T13:37:54.112Z,101676.38
2022-09-20T13:41:04.594Z,101677.34
2022-09-20T13:44:07.343Z,101673.25
2022-09-20T13:47:27.362Z,101670.47
2022-09-20T13:50:34.715Z,101675.69
2022-09-20T13:53:42.336Z,101678.94
2022-09-20T13:56:45.571Z,101670.13
2022-09-20T13:59:49.775Z,101672.09
2022-09-20T14:02:54.702Z,101667.97
2022-09-20T14:06:00.545Z,101661.06
2022-09-20T14:09:11.069Z,101667.28
2022-09-20T14:12:14.862Z,101667.41
2022-09-20T14:15:17.832Z,101662.09
2022-09-20T14:18:22.404Z,101669.91
2022-09-20T14:21:27.241Z,101657.66
2022-09-20T14:24:35.287Z,101664.00
2022-09-20T14:27:38.072Z,101652.47
2022-09-20T14:30:40.891Z,101651.69
2022-09-20T14:33:49.807Z,101654.41
2022-09-20T14:37:06.470Z,101652.75
2022-09-20T14:40:22.786Z,101659.97
2022-09-20T14:43:31.347Z,101664.59
2022-09-20T14:46:36.038Z,101671.75
2022-09-20T14:49:41.907Z,101673.50
2022-09-20T14:52:45.315Z,101681.91
2022-09-20T14:56:01.632Z,101675.47
2022-09-20T14:59:26.108Z,101682.25
2022-09-20T15:02:28.846Z,101682.09
2022-09-20T15:05:31.549Z,101687.81
2022-09-20T15:08:35.594Z,101688.91
2022-09-20T15:11:40.689Z,101695.69
2022-09-20T15:14:44.975Z,101701.06
2022-09-20T15:17:48.745Z,101705.91
2022-09-20T15:20:52.214Z,101709.03
2022-09-20T15:23:54.982Z,101719.84
2022-09-20T15:26:58.885Z,101725.09
2022-09-20T15:30:01.614Z,101726.88
2022-09-20T15:33:04.520Z,101726.75
2022-09-20T15:36:08.051Z,101725.97
2022-09-20T15:39:10.597Z,101730.06
2022-09-20T15:42:14.958Z,101721.81
2022-09-20T15:45:18.264Z,101724.97
2022-09-20T15:48:22.388Z,101721.41
2022-09-20T15:51:25.111Z,101722.09
2022-09-20T15:54:27.726Z,101719.66
2022-09-20T15:57:32.568Z,101728.31
2022-09-20T16:00:35.731Z,101719.75
2022-09-20T16:03:38.696Z,101732.13
2022-09-20T16:06:44.061Z,101727.44
2022-09-20T16:09:46.634Z,101719.88
2022-09-20T16:12:50.720Z,101721.22
2022-09-20T16:15:57.333Z,101736.88
2022-09-20T16:19:19.639Z,101734.03
2022-09-20T16:22:22.321Z,101734.16
2022-09-20T16:25:25.198Z,101732.72
2022-09-20T16:28:29.161Z,101736.00
2022-09-20T16:31:34.753Z,101736.84
2022-09-20T16:34:38.553Z,101746.47
2022-09-20T16:37:41.173Z,101745.25
2022-09-20T16:40:44.014Z,101739.84
2022-09-20T16:43:52.144Z,101740.34
2022-09-20T16:46:54.737Z,101739.19
2022-09-20T16:49:57.434Z,101744.38
2022-09-20T16:53:00.148Z,101755.31
2022-09-20T16:56:07.621Z,101759.38
2022-09-20T16:59:12.549Z,101755.63
2022-09-20T17:02:17.333Z,101756.03
2022-09-20T17:05:19.898Z,101762.06
2022-09-20T17:08:23.315Z,101772.50
2022-09-20T17:11:27.791Z,101768.31
2022-09-20T17:14:31.839Z,101768.81
2022-09-20T17:17:34.681Z,101771.00
2022-09-20T17:20:39.099Z,101778.34
2022-09-20T17:23:45.557Z,101789.00
2022-09-20T17:26:52.298Z,101785.69
2022-09-20T17:29:56.446Z,101785.16
2022-09-20T17:32:59.284Z,101787.25
2022-09-20T17:36:03.124Z,101795.66
2022-09-20T17:39:06.843Z,101802.50
2022-09-20T17:42:09.383Z,101808.97
2022-09-20T17:45:13.660Z,101805.53
2022-09-20T17:48:16.235Z,101804.75
2022-09-20T17:51:20.816Z,101809.16
2022-09-20T17:54:24.677Z,101814.66
2022-09-20T17:57:27.370Z,101813.59
2022-09-20T18:00:31.340Z,101823.34
2022-09-20T18:03:38.163Z,101827.28
2022-09-20T18:06:43.253Z,101829.94
2022-09-20T18:09:45.807Z,101826.72
2022-09-20T18:12:48.505Z,101845.59
2022-09-20T18:15:52.453Z,101845.38
2022-09-20T18:18:55.531Z,101847.13
2022-09-20T18:21:58.101Z,101852.63
2022-09-20T18:25:00.691Z,101848.09
2022-09-20T18:28:03.260Z,101849.41
2022-09-20T18:31:08.711Z,101849.03
2022-09-20T18:34:18.130Z,101854.03
2022-09-20T18:37:20.843Z,101856.19
2022-09-20T18:40:23.592Z,101855.94
2022-09-20T18:43:26.866Z,101847.19
2022-09-20T18:46:31.645Z,101851.94
2022-09-20T18:49:34.634Z,101864.22
2022-09-20T18:52:38.742Z,101866.16
2022-09-20T18:55:43.989Z,101869.34
2022-09-20T18:58:47.392Z,101870.41
2022-09-20T19:02:24.722Z,101869.44
2022-09-20T19:05:35.229Z,101874.78
2022-09-20T19:08:46.567Z,101880.38
2022-09-20T19:12:00.878Z,101881.69
2022-09-20T19:15:21.404Z,101879.63
2022-09-20T19:18:38.201Z,101879.00
2022-09-20T19:21:47.483Z,101885.09
2022-09-20T19:25:04.971Z,101880.22
2022-09-20T19:28:10.855Z,101874.41
2022-09-20T19:31:21.118Z,101881.22
2022-09-20T19:34:27.715Z,101887.94
2022-09-20T19:37:38.030Z,101894.28
2022-09-20T19:40:50.201Z,101889.00
2022-09-20T19:44:18.226Z,101899.06
2022-09-20T19:47:30.778Z,101910.06
2022-09-20T19:50:41.143Z,101912.09
2022-09-20T19:53:44.369Z,101908.25
2022-09-20T19:56:55.158Z,101916.00
2022-09-20T19:59:58.344Z,101906.94
2022-09-20T20:03:01.590Z,101908.72
2022-09-20T20:06:16.222Z,101918.66
2022-09-20T20:09:28.731Z,101916.28
2022-09-20T20:12:36.825Z,101909.31
2022-09-20T20:15:46.255Z,101933.09
2022-09-20T20:19:05.907Z,101925.19
2022-09-20T20:22:23.825Z,101915.66
2022-09-20T20:25:41.491Z,101933.22
2022-09-20T20:28:44.239Z,101922.00
2022-09-20T20:31:47.003Z,101937.50
2022-09-20T20:34:50.430Z,101932.00
2022-09-20T20:37:54.565Z,101946.66
2022-09-20T20:41:04.429Z,101945.53
2022-09-20T20:44:08.396Z,101946.19
2022-09-20T20:47:11.455Z,101943.66
2022-09-20T20:50:14.433Z,101950.09
2022-09-20T20:53:18.644Z,101947.56
2022-09-20T20:56:22.871Z,101945.81
2022-09-20T20:59:25.597Z,101954.50
2022-09-20T21:02:29.263Z,101947.16
2022-09-20T21:05:32.401Z,101959.44
2022-09-20T21:08:38.228Z,101965.41
2022-09-20T21:11:43.219Z,101971.50
2022-09-20T21:14:45.908Z,101967.91
2022-09-20T21:17:51.980Z,101971.06
2022-09-20T21:20:54.654Z,101967.53
2022-09-20T21:24:00.444Z,101974.47
2022-09-20T21:27:05.063Z,101976.94
2022-09-20T21:30:09.412Z,101982.34
2022-09-20T21:33:11.973Z,101985.44
2022-09-20T21:36:16.798Z,101983.41
2022-09-20T21:39:20.861Z,101982.13
2022-09-20T21:42:25.424Z,101989.16
2022-09-20T21:45:29.709Z,101997.75
2022-09-20T21:48:32.314Z,101996.38
2022-09-20T21:51:35.945Z,101997.94
2022-09-20T21:54:39.948Z,102001.09
2022-09-20T21:57:42.505Z,101995.38
2022-09-20T22:00:56.397Z,102002.88
2022-09-20T22:04:01.028Z,102000.38
2022-09-20T22:07:04.619Z,101996.00
2022-09-20T22:10:09.779Z,101994.56
2022-09-20T22:13:12.343Z,102000.56
2022-09-20T22:16:16.856Z,101993.88
2022-09-20T22:19:20.428Z,101997.84
2022-09-20T22:22:23.025Z,101998.28
2022-09-20T22:25:27.072Z,101999.81
2022-09-20T22:28:29.672Z,102003.91
2022-09-20T22:31:33.943Z,101997.59
2022-09-20T22:34:36.675Z,101992.88
2022-09-20T22:37:39.424Z,101993.19
2022-09-20T22:40:53.373Z,101999.28
2022-09-20T22:43:56.520Z,101992.34
2022-09-20T22:46:59.237Z,101991.03
2022-09-20T22:50:01.977Z,101995.88
2022-09-20T22:53:04.572Z,101995.41
2022-09-20T22:56:11.156Z,101994.41
2022-09-20T22:59:15.239Z,101997.69
2022-09-20T23:02:18.061Z,102001.28
2022-09-20T23:05:20.781Z,102011.25
2022-09-20T23:08:25.071Z,102007.97
2022-09-20T23:11:29.731Z,102015.59
2022-09-20T23:14:32.495Z,102019.41
2022-09-20T23:17:35.218Z,102018.75
2022-09-20T23:20:38.282Z,102023.81
2022-09-20T23:23:43.184Z,102023.25
2022-09-20T23:26:47.740Z,102023.41
2022-09-20T23:29:50.317Z,102033.13
2022-09-20T23:32:54.924Z,102029.59
2022-09-20T23:35:58.317Z,102028.59
2022-09-20T23:39:01.285Z,102027.56
2022-09-20T23:42:05.875Z,102031.63
2022-09-20T23:45:10.134Z,102032.44
2022-09-20T23:48:12.893Z,102033.06
2022-09-20T23:51:17.589Z,102032.34
2022-09-20T23:54:20.139Z,102038.31
2022-09-20T23:57:24.181Z,102040.06
